createdAt,value
2023-06-02T00:00:10.891Z,78.62
2023-06-02T00:01:10.916Z,78.72
2023-06-02T00:02:10.919Z,78.41
2023-06-02T00:03:10.899Z,78.72
2023-06-02T00:04:10.879Z,78.41
2023-06-02T00:05:10.895Z,78.48
2023-06-02T00:06:10.891Z,78.01
2023-06-02T00:07:10.841Z,78.01
2023-06-02T00:08:10.830Z,78.72
2023-06-02T00:09:10.867Z,78.62
2023-06-02T00:10:10.816Z,78.31
2023-06-02T00:11:10.832Z,78.11
2023-06-02T00:12:10.795Z,78.62
2023-06-02T00:13:10.793Z,78.66
2023-06-02T00:14:10.791Z,78.55
2023-06-02T00:15:10.809Z,78.96
2023-06-02T00:16:10.809Z,78.66
2023-06-02T00:17:10.770Z,78.62
2023-06-02T00:18:10.759Z,78.15
2023-06-02T00:19:10.755Z,78.35
2023-06-02T00:20:10.802Z,78.86
2023-06-02T00:21:10.748Z,78.86
2023-06-02T00:22:10.725Z,78.89
2023-06-02T00:23:10.729Z,79.00
2023-06-02T00:24:10.779Z,79.27
2023-06-02T00:25:10.734Z,78.66
2023-06-02T00:26:10.711Z,78.96
2023-06-02T00:27:10.694Z,78.86
2023-06-02T00:28:10.689Z,78.66
2023-06-02T00:29:10.712Z,79.00
2023-06-02T00:30:10.698Z,78.89
2023-06-02T00:31:10.683Z,78.49
2023-06-02T00:32:10.652Z,78.86
2023-06-02T00:33:10.647Z,78.76
2023-06-02T00:34:10.663Z,78.96
2023-06-02T00:35:10.634Z,78.55
2023-06-02T00:36:10.942Z,78.76
2023-06-02T00:37:10.618Z,78.15
2023-06-02T00:38:10.628Z,78.35
2023-06-02T00:39:10.635Z,78.45
2023-06-02T00:40:10.621Z,77.94
2023-06-02T00:41:10.596Z,78.76
2023-06-02T00:42:10.588Z,78.45
2023-06-02T00:43:10.606Z,78.35
2023-06-02T00:44:10.591Z,78.96
2023-06-02T00:45:10.563Z,78.25
2023-06-02T00:46:10.814Z,78.76
2023-06-02T00:47:10.543Z,78.80
2023-06-02T00:48:10.559Z,79.30
2023-06-02T00:49:10.561Z,78.89
2023-06-02T00:50:10.529Z,79.30
2023-06-02T00:51:10.516Z,78.59
2023-06-02T00:52:10.539Z,79.00
2023-06-02T00:53:10.528Z,78.55
2023-06-02T00:54:10.549Z,78.89
2023-06-02T00:55:10.483Z,78.76
2023-06-02T00:56:10.482Z,78.05
2023-06-02T00:57:10.475Z,78.45
2023-06-02T00:58:10.510Z,78.25
2023-06-02T00:59:10.453Z,78.15
2023-06-02T01:00:10.447Z,78.35
2023-06-02T01:01:10.476Z,77.91
2023-06-02T01:02:10.452Z,78.15
2023-06-02T01:03:10.470Z,78.15
2023-06-02T01:04:10.413Z,78.49
2023-06-02T01:05:10.418Z,78.69
2023-06-02T01:06:10.399Z,78.80
2023-06-02T01:07:10.425Z,78.80
2023-06-02T01:08:10.381Z,79.30
2023-06-02T01:09:10.380Z,78.63
2023-06-02T01:10:10.376Z,79.41
2023-06-02T01:11:10.369Z,79.00
2023-06-02T01:12:10.509Z,78.80
2023-06-02T01:13:10.363Z,78.89
2023-06-02T01:14:10.359Z,78.59
2023-06-02T01:15:10.350Z,78.49
2023-06-02T01:16:10.365Z,78.69
2023-06-02T01:17:10.339Z,78.83
2023-06-02T01:18:10.305Z,79.64
2023-06-02T01:19:10.305Z,79.85
2023-06-02T01:20:10.294Z,79.44
2023-06-02T01:21:10.313Z,79.44
2023-06-02T01:22:10.286Z,79.54
2023-06-02T01:23:10.269Z,79.00
2023-06-02T01:24:10.264Z,78.80
2023-06-02T01:25:10.256Z,78.93
2023-06-02T01:26:10.803Z,78.93
2023-06-02T01:27:10.236Z,79.75
2023-06-02T01:28:10.225Z,79.14
2023-06-02T01:29:10.217Z,79.38
2023-06-02T01:30:10.234Z,79.99
2023-06-02T01:31:10.228Z,79.38
2023-06-02T01:32:10.255Z,79.17
2023-06-02T01:33:10.266Z,79.64
2023-06-02T01:34:10.182Z,79.64
2023-06-02T01:35:10.202Z,79.54
2023-06-02T01:36:10.162Z,79.24
2023-06-02T01:37:10.154Z,80.05
2023-06-02T01:38:10.153Z,79.54
2023-06-02T01:39:10.140Z,79.24
2023-06-02T01:40:10.154Z,79.54
2023-06-02T01:41:10.129Z,79.85
2023-06-02T01:42:10.118Z,80.16
2023-06-02T01:43:10.113Z,79.44
2023-06-02T01:44:10.128Z,79.27
2023-06-02T01:45:10.122Z,79.64
2023-06-02T01:46:10.101Z,79.17
2023-06-02T01:47:10.077Z,79.64
2023-06-02T01:48:10.075Z,79.85
2023-06-02T01:49:10.088Z,79.44
2023-06-02T01:50:10.060Z,79.64
2023-06-02T01:51:10.050Z,79.68
2023-06-02T01:52:10.040Z,79.38
2023-06-02T01:53:10.034Z,79.68
2023-06-02T01:54:10.052Z,79.48
2023-06-02T01:55:10.021Z,79.58
2023-06-02T01:56:10.008Z,80.02
2023-06-02T01:57:10.006Z,80.43
2023-06-02T01:58:09.983Z,79.41
2023-06-02T01:59:11.011Z,79.52
2023-06-02T02:00:09.971Z,79.62
2023-06-02T02:01:10.000Z,79.82
2023-06-02T02:02:09.961Z,79.72
2023-06-02T02:03:10.037Z,79.72
2023-06-02T02:04:09.965Z,80.02
2023-06-02T02:05:09.929Z,80.33
2023-06-02T02:06:10.937Z,80.54
2023-06-02T02:07:09.919Z,80.13
2023-06-02T02:08:09.935Z,81.29
2023-06-02T02:09:09.899Z,79.41
2023-06-02T02:10:09.896Z,79.86
2023-06-02T02:11:09.884Z,79.66
2023-06-02T02:12:09.924Z,79.55
2023-06-02T02:13:09.905Z,80.00
2023-06-02T02:14:09.870Z,79.35
2023-06-02T02:15:09.870Z,79.25
2023-06-02T02:16:09.866Z,80.20
2023-06-02T02:17:09.844Z,79.52
2023-06-02T02:18:09.857Z,80.44
2023-06-02T02:19:09.827Z,80.96
2023-06-02T02:20:09.834Z,81.26
2023-06-02T02:21:09.812Z,81.20
2023-06-02T02:22:09.841Z,81.40
2023-06-02T02:23:09.835Z,81.10
2023-06-02T02:24:09.806Z,82.15
2023-06-02T02:25:09.782Z,82.97
2023-06-02T02:26:09.781Z,81.91
2023-06-02T02:27:09.786Z,83.07
2023-06-02T02:28:09.749Z,83.24
2023-06-02T02:29:09.745Z,82.36
2023-06-02T02:30:09.749Z,83.28
2023-06-02T02:31:09.775Z,82.87
2023-06-02T02:32:09.745Z,82.97
2023-06-02T02:33:09.774Z,81.54
2023-06-02T02:34:09.706Z,81.44
2023-06-02T02:35:09.698Z,81.34
2023-06-02T02:36:09.777Z,81.20
2023-06-02T02:37:09.709Z,81.91
2023-06-02T02:38:09.676Z,82.87
2023-06-02T02:39:09.664Z,81.81
2023-06-02T02:40:09.658Z,80.89
2023-06-02T02:41:09.673Z,81.40
2023-06-02T02:42:09.648Z,80.99
2023-06-02T02:43:09.645Z,80.34
2023-06-02T02:44:09.623Z,80.07
2023-06-02T02:45:09.761Z,79.52
2023-06-02T02:46:09.663Z,79.83
2023-06-02T02:47:09.611Z,79.52
2023-06-02T02:48:09.609Z,80.04
2023-06-02T02:49:09.586Z,79.73
2023-06-02T02:50:09.613Z,80.24
2023-06-02T02:51:09.600Z,80.14
2023-06-02T02:52:09.564Z,80.48
2023-06-02T02:53:09.558Z,79.43
2023-06-02T02:54:09.556Z,79.83
2023-06-02T02:55:09.562Z,79.93
2023-06-02T02:56:09.539Z,79.39
2023-06-02T02:57:09.532Z,79.59
2023-06-02T02:58:09.524Z,79.80
2023-06-02T02:59:09.533Z,78.88
2023-06-02T03:00:09.537Z,79.93
2023-06-02T03:01:09.529Z,79.59
2023-06-02T03:02:09.497Z,79.69
2023-06-02T03:03:09.483Z,79.83
2023-06-02T03:04:09.540Z,78.88
2023-06-02T03:05:09.486Z,78.98
2023-06-02T03:06:09.459Z,79.08
2023-06-02T03:07:11.421Z,79.43
2023-06-02T03:08:09.447Z,81.05
2023-06-02T03:09:09.468Z,80.96
2023-06-02T03:10:09.440Z,80.14
2023-06-02T03:11:09.419Z,79.93
2023-06-02T03:12:09.442Z,80.34
2023-06-02T03:13:09.401Z,80.24
2023-06-02T03:14:09.419Z,79.59
2023-06-02T03:15:09.387Z,79.52
2023-06-02T03:16:09.392Z,80.00
2023-06-02T03:17:09.497Z,80.82
2023-06-02T03:18:09.413Z,81.16
2023-06-02T03:19:09.383Z,80.75
2023-06-02T03:20:09.410Z,81.05
2023-06-02T03:21:09.385Z,81.16
2023-06-02T03:22:09.416Z,80.96
2023-06-02T03:23:09.374Z,81.37
2023-06-02T03:24:09.313Z,80.65
2023-06-02T03:25:09.308Z,81.67
2023-06-02T03:26:09.299Z,81.26
2023-06-02T03:27:09.289Z,80.14
2023-06-02T03:28:09.319Z,80.71
2023-06-02T03:29:09.285Z,79.90
2023-06-02T03:30:09.277Z,80.65
2023-06-02T03:31:09.287Z,80.34
2023-06-02T03:32:09.285Z,80.65
2023-06-02T03:33:09.365Z,81.26
2023-06-02T03:34:09.242Z,81.05
2023-06-02T03:35:09.240Z,83.10
2023-06-02T03:36:09.286Z,81.81
2023-06-02T03:37:09.271Z,82.83
2023-06-02T03:38:09.218Z,83.38
2023-06-02T03:39:09.249Z,83.59
2023-06-02T03:40:09.209Z,83.34
2023-06-02T03:41:09.192Z,82.87
2023-06-02T03:42:09.210Z,82.87
2023-06-02T03:43:09.185Z,82.77
2023-06-02T03:44:09.175Z,82.05
2023-06-02T03:45:09.161Z,81.34
2023-06-02T03:46:09.183Z,82.15
2023-06-02T03:47:09.170Z,81.51
2023-06-02T03:48:09.150Z,81.20
2023-06-02T03:49:09.135Z,81.60
2023-06-02T03:50:09.129Z,80.28
2023-06-02T03:51:10.588Z,80.44
2023-06-02T03:52:10.110Z,79.52
2023-06-02T03:53:09.110Z,81.20
2023-06-02T03:54:09.093Z,80.44
2023-06-02T03:55:09.090Z,80.28
2023-06-02T03:56:09.105Z,80.07
2023-06-02T03:57:09.081Z,80.99
2023-06-02T03:58:09.067Z,79.97
2023-06-02T03:59:09.063Z,81.40
2023-06-02T04:00:09.081Z,82.67
2023-06-02T04:01:09.075Z,81.85
2023-06-02T04:02:09.110Z,82.05
2023-06-02T04:03:09.066Z,81.88
2023-06-02T04:04:09.143Z,82.87
2023-06-02T04:05:09.088Z,82.77
2023-06-02T04:06:09.031Z,82.77
2023-06-02T04:07:08.988Z,83.38
2023-06-02T04:08:08.988Z,83.52
2023-06-02T04:09:08.983Z,84.75
2023-06-02T04:10:09.006Z,84.09
2023-06-02T04:11:08.964Z,83.89
2023-06-02T04:12:08.963Z,83.28
2023-06-02T04:13:08.953Z,82.91
2023-06-02T04:14:08.963Z,84.14
2023-06-02T04:15:08.960Z,84.03
2023-06-02T04:16:08.961Z,83.11
2023-06-02T04:17:08.927Z,82.60
2023-06-02T04:18:08.909Z,83.73
2023-06-02T04:19:08.927Z,83.42
2023-06-02T04:20:08.897Z,83.52
2023-06-02T04:21:08.888Z,83.32
2023-06-02T04:22:08.904Z,82.91
2023-06-02T04:23:08.872Z,83.62
2023-06-02T04:24:08.892Z,83.32
2023-06-02T04:25:08.878Z,83.11
2023-06-02T04:26:11.133Z,82.81
2023-06-02T04:27:09.848Z,83.32
2023-06-02T04:28:08.863Z,83.32
2023-06-02T04:29:08.853Z,83.01
2023-06-02T04:30:08.821Z,82.81
2023-06-02T04:31:08.806Z,82.81
2023-06-02T04:32:08.920Z,82.91
2023-06-02T04:33:08.860Z,82.70
2023-06-02T04:34:08.794Z,83.11
2023-06-02T04:35:08.781Z,82.81
2023-06-02T04:36:08.808Z,83.32
2023-06-02T04:37:08.786Z,83.42
2023-06-02T04:38:08.778Z,82.81
2023-06-02T04:39:08.752Z,82.81
2023-06-02T04:40:08.736Z,83.22
2023-06-02T04:41:08.750Z,82.70
2023-06-02T04:42:08.720Z,82.91
2023-06-02T04:43:08.744Z,83.62
2023-06-02T04:44:08.702Z,84.14
2023-06-02T04:45:08.696Z,82.70
2023-06-02T04:46:08.706Z,81.27
2023-06-02T04:47:08.707Z,82.87
2023-06-02T04:48:08.707Z,83.07
2023-06-02T04:49:08.686Z,83.01
2023-06-02T04:50:08.659Z,82.20
2023-06-02T04:51:08.666Z,81.07
2023-06-02T04:52:08.676Z,81.79
2023-06-02T04:53:08.639Z,82.91
2023-06-02T04:54:08.629Z,82.20
2023-06-02T04:55:08.622Z,82.20
2023-06-02T04:56:08.618Z,81.68
2023-06-02T04:57:08.662Z,82.81
2023-06-02T04:58:08.606Z,80.76
2023-06-02T04:59:08.595Z,79.74
2023-06-02T05:00:08.578Z,81.38
2023-06-02T05:01:08.598Z,80.93
2023-06-02T05:02:08.645Z,81.85
2023-06-02T05:03:08.570Z,81.03
2023-06-02T05:04:08.562Z,81.03
2023-06-02T05:05:08.553Z,81.38
2023-06-02T05:06:08.800Z,80.83
2023-06-02T05:07:08.574Z,83.07
2023-06-02T05:08:08.547Z,81.03
2023-06-02T05:09:08.525Z,81.27
2023-06-02T05:10:08.496Z,81.48
2023-06-02T05:11:08.525Z,81.38
2023-06-02T05:12:08.493Z,81.17
2023-06-02T05:13:08.495Z,81.44
2023-06-02T05:14:08.482Z,80.46
2023-06-02T05:15:08.468Z,81.44
2023-06-02T05:16:08.520Z,79.39
2023-06-02T05:17:08.456Z,79.43
2023-06-02T05:18:08.504Z,81.13
2023-06-02T05:19:08.431Z,81.44
2023-06-02T05:20:08.494Z,80.11
2023-06-02T05:21:08.453Z,81.34
2023-06-02T05:22:08.414Z,81.44
2023-06-02T05:23:08.407Z,80.21
2023-06-02T05:24:08.392Z,79.91
2023-06-02T05:25:11.142Z,81.13
2023-06-02T05:26:08.377Z,80.62
2023-06-02T05:27:08.371Z,80.01
2023-06-02T05:28:08.360Z,80.21
2023-06-02T05:29:08.353Z,80.73
2023-06-02T05:30:08.385Z,80.73
2023-06-02T05:31:08.350Z,80.42
2023-06-02T05:32:08.331Z,80.73
2023-06-02T05:33:08.326Z,79.70
2023-06-02T05:34:08.337Z,80.73
2023-06-02T05:35:08.329Z,81.65
2023-06-02T05:36:08.305Z,80.42
2023-06-02T05:37:08.293Z,80.62
2023-06-02T05:38:08.289Z,81.03
2023-06-02T05:39:08.310Z,79.39
2023-06-02T05:40:08.273Z,79.91
2023-06-02T05:41:08.267Z,78.78
2023-06-02T05:42:08.256Z,79.39
2023-06-02T05:43:08.257Z,79.60
2023-06-02T05:44:08.260Z,79.09
2023-06-02T05:45:08.237Z,81.54
2023-06-02T05:46:08.462Z,79.09
2023-06-02T05:47:08.214Z,80.21
2023-06-02T05:48:08.278Z,80.01
2023-06-02T05:49:08.222Z,79.09
2023-06-02T05:50:09.132Z,79.91
2023-06-02T05:51:08.187Z,79.60
2023-06-02T05:52:08.176Z,79.19
2023-06-02T05:53:09.200Z,79.64
2023-06-02T05:54:08.165Z,80.11
2023-06-02T05:55:08.153Z,79.19
2023-06-02T05:56:08.158Z,79.09
2023-06-02T05:57:08.147Z,79.39
2023-06-02T05:58:08.171Z,79.91
2023-06-02T05:59:08.129Z,78.68
2023-06-02T06:00:08.126Z,78.61
2023-06-02T06:01:08.116Z,79.33
2023-06-02T06:02:08.128Z,79.33
2023-06-02T06:03:08.321Z,79.33
2023-06-02T06:04:08.121Z,78.48
2023-06-02T06:05:08.082Z,78.99
2023-06-02T06:06:08.073Z,78.07
2023-06-02T06:07:08.101Z,79.29
2023-06-02T06:08:08.095Z,77.97
2023-06-02T06:09:08.050Z,78.48
2023-06-02T06:10:08.048Z,78.68
2023-06-02T06:11:08.057Z,77.39
2023-06-02T06:12:08.048Z,78.58
2023-06-02T06:13:08.011Z,77.08
2023-06-02T06:14:08.004Z,77.45
2023-06-02T06:15:07.997Z,78.07
2023-06-02T06:16:08.086Z,76.50
2023-06-02T06:17:08.016Z,76.97
2023-06-02T06:18:08.014Z,76.36
2023-06-02T06:19:07.975Z,76.16
2023-06-02T06:20:07.968Z,76.87
2023-06-02T06:21:07.979Z,75.75
2023-06-02T06:22:08.083Z,76.12
2023-06-02T06:23:07.948Z,76.53
2023-06-02T06:24:07.949Z,75.71
2023-06-02T06:25:07.922Z,76.06
2023-06-02T06:26:07.969Z,75.99
2023-06-02T06:27:10.335Z,76.40
2023-06-02T06:28:07.912Z,75.89
2023-06-02T06:29:07.900Z,75.89
2023-06-02T06:30:07.886Z,77.11
2023-06-02T06:31:07.940Z,76.36
2023-06-02T06:32:07.891Z,76.16
2023-06-02T06:33:07.871Z,76.36
2023-06-02T06:34:07.862Z,76.19
2023-06-02T06:35:07.877Z,76.19
2023-06-02T06:36:07.864Z,76.90
2023-06-02T06:37:07.838Z,75.62
2023-06-02T06:38:07.831Z,76.60
2023-06-02T06:39:07.825Z,76.97
2023-06-02T06:40:07.838Z,74.83
2023-06-02T06:41:07.808Z,75.89
2023-06-02T06:42:07.799Z,75.44
2023-06-02T06:43:23.030Z,74.73
2023-06-02T06:44:09.799Z,75.20
2023-06-02T06:45:07.821Z,72.21
2023-06-02T06:46:07.773Z,71.50
2023-06-02T06:47:07.770Z,73.57
2023-06-02T06:48:07.902Z,71.50
2023-06-02T06:49:07.775Z,69.60
2023-06-02T06:50:07.766Z,69.26
2023-06-02T06:51:07.722Z,67.38
2023-06-02T06:52:07.728Z,65.56
2023-06-02T06:53:07.721Z,64.88
2023-06-02T06:54:08.654Z,65.05
2023-06-02T06:55:08.695Z,64.78
2023-06-02T06:56:07.711Z,66.22
2023-06-02T06:57:07.690Z,68.75
2023-06-02T06:58:07.677Z,70.68
2023-06-02T06:59:07.702Z,69.43
2023-06-02T07:00:07.657Z,69.87
2023-06-02T07:01:07.651Z,72.11
2023-06-02T07:02:07.808Z,71.02
2023-06-02T07:03:07.773Z,70.86
2023-06-02T07:04:07.732Z,71.19
2023-06-02T07:05:07.626Z,68.89
2023-06-02T07:06:07.616Z,67.07
2023-06-02T07:07:07.610Z,65.02
2023-06-02T07:08:07.629Z,65.69
2023-06-02T07:09:07.616Z,68.52
2023-06-02T07:10:07.583Z,67.44
2023-06-02T07:11:07.582Z,66.79
2023-06-02T07:12:07.577Z,68.11
2023-06-02T07:13:07.589Z,69.06
2023-06-02T07:14:16.262Z,70.62
2023-06-02T07:15:09.547Z,71.19
2023-06-02T07:16:07.550Z,71.84
2023-06-02T07:17:07.553Z,72.82
2023-06-02T07:18:07.661Z,74.59
2023-06-02T07:19:07.519Z,74.69
2023-06-02T07:20:07.513Z,75.31
2023-06-02T07:21:07.499Z,75.71
2023-06-02T07:22:07.609Z,74.69
2023-06-02T07:23:07.491Z,74.66
2023-06-02T07:24:07.492Z,74.86
2023-06-02T07:25:07.479Z,74.83
2023-06-02T07:26:07.471Z,74.96
2023-06-02T07:27:07.485Z,74.66
2023-06-02T07:28:07.448Z,75.37
2023-06-02T07:29:07.450Z,72.72
2023-06-02T07:30:07.445Z,72.82
2023-06-02T07:31:10.977Z,74.93
2023-06-02T07:32:08.561Z,73.30
2023-06-02T07:33:07.421Z,73.81
2023-06-02T07:34:07.400Z,71.67
2023-06-02T07:35:07.395Z,73.54
2023-06-02T07:36:07.445Z,75.07
2023-06-02T07:37:07.374Z,73.54
2023-06-02T07:38:07.367Z,73.33
2023-06-02T07:39:07.362Z,73.40
2023-06-02T07:40:07.351Z,73.60
2023-06-02T07:41:07.368Z,73.10
2023-06-02T07:42:07.332Z,74.52
2023-06-02T07:43:07.325Z,74.01
2023-06-02T07:44:07.322Z,73.36
2023-06-02T07:45:07.332Z,72.89
2023-06-02T07:46:07.655Z,73.30
2023-06-02T07:47:07.352Z,72.75
2023-06-02T07:48:07.302Z,74.42
2023-06-02T07:49:07.270Z,73.88
2023-06-02T07:50:08.296Z,74.69
2023-06-02T07:51:07.268Z,72.72
2023-06-02T07:52:08.272Z,72.79
2023-06-02T07:53:07.254Z,73.10
2023-06-02T07:54:07.253Z,74.11
2023-06-02T07:55:07.262Z,72.17
2023-06-02T07:56:07.584Z,72.65
2023-06-02T07:57:08.221Z,73.26
2023-06-02T07:58:07.210Z,73.47
2023-06-02T07:59:07.198Z,72.86
2023-06-02T08:00:07.215Z,72.58
2023-06-02T08:01:07.486Z,73.88
2023-06-02T08:02:07.197Z,74.49
2023-06-02T08:03:07.319Z,72.62
2023-06-02T08:04:07.414Z,73.64
2023-06-02T08:05:07.200Z,74.45
2023-06-02T08:06:07.152Z,73.19
2023-06-02T08:07:07.146Z,71.40
2023-06-02T08:08:07.929Z,70.18
2023-06-02T08:09:07.153Z,70.76
2023-06-02T08:10:07.145Z,68.59
2023-06-02T08:11:07.111Z,67.61
2023-06-02T08:12:07.094Z,66.97
2023-06-02T08:13:07.090Z,65.42
2023-06-02T08:14:07.100Z,63.61
2023-06-02T08:15:07.088Z,63.89
2023-06-02T08:17:08.058Z,62.57
2023-06-02T08:18:07.158Z,59.91
2023-06-02T08:19:07.236Z,61.60
2023-06-02T08:20:07.036Z,61.68
2023-06-02T08:21:07.024Z,62.07
2023-06-02T08:22:07.116Z,63.78
2023-06-02T08:23:07.047Z,64.62
2023-06-02T08:24:07.007Z,63.61
2023-06-02T08:25:06.990Z,65.47
2023-06-02T08:26:06.985Z,61.17
2023-06-02T08:27:06.974Z,60.16
2023-06-02T08:28:06.989Z,60.69
2023-06-02T08:29:06.958Z,59.48
2023-06-02T08:30:06.947Z,61.27
2023-06-02T08:31:06.993Z,60.00
2023-06-02T08:32:08.072Z,62.84
2023-06-02T08:33:07.010Z,63.40
2023-06-02T08:34:06.929Z,64.78
2023-06-02T08:35:06.927Z,65.55
2023-06-02T08:36:06.960Z,66.42
2023-06-02T08:37:06.927Z,67.10
2023-06-02T08:38:06.913Z,67.18
2023-06-02T08:39:06.879Z,63.21
2023-06-02T08:40:06.967Z,64.62
2023-06-02T08:41:07.065Z,61.73
2023-06-02T08:42:06.881Z,61.98
2023-06-02T08:43:06.860Z,62.90
2023-06-02T08:44:06.862Z,66.30
2023-06-02T08:45:06.834Z,64.25
2023-06-02T08:46:06.883Z,61.59
2023-06-02T08:47:06.843Z,63.10
2023-06-02T08:48:06.839Z,64.25
2023-06-02T08:49:06.804Z,63.98
2023-06-02T08:50:06.806Z,64.41
2023-06-02T08:51:06.788Z,66.74
2023-06-02T08:52:06.806Z,66.13
2023-06-02T08:53:06.768Z,65.39
2023-06-02T08:54:06.761Z,66.70
2023-06-02T08:55:06.801Z,67.95
2023-06-02T08:56:07.043Z,67.03
2023-06-02T08:57:06.774Z,69.09
2023-06-02T08:58:06.737Z,69.26
2023-06-02T08:59:06.732Z,66.86
2023-06-02T09:00:06.729Z,67.65
2023-06-02T09:01:06.739Z,67.98
2023-06-02T09:02:06.716Z,67.91
2023-06-02T09:03:06.730Z,65.11
2023-06-02T09:04:08.464Z,64.69
2023-06-02T09:05:07.764Z,63.35
2023-06-02T09:06:06.920Z,58.89
2023-06-02T09:07:06.674Z,60.38
2023-06-02T09:08:06.668Z,58.92
2023-06-02T09:09:06.655Z,63.02
2023-06-02T09:10:06.680Z,61.57
2023-06-02T09:11:06.672Z,63.29
2023-06-02T09:12:06.622Z,63.35
2023-06-02T09:13:06.619Z,63.25
2023-06-02T09:14:06.618Z,63.35
2023-06-02T09:15:07.411Z,63.85
2023-06-02T09:16:06.935Z,64.39
2023-06-02T09:17:06.579Z,61.13
2023-06-02T09:18:06.630Z,60.80
2023-06-02T09:19:06.581Z,58.34
2023-06-02T09:20:06.585Z,61.17
2023-06-02T09:21:06.963Z,61.68
2023-06-02T09:22:06.653Z,61.71
2023-06-02T09:23:06.539Z,60.80
2023-06-02T09:25:07.555Z,65.27
2023-06-02T09:26:09.970Z,63.45
2023-06-02T09:27:08.512Z,61.73
2023-06-02T09:28:06.508Z,61.94
2023-06-02T09:29:06.528Z,61.20
2023-06-02T09:30:06.500Z,63.85
2023-06-02T09:31:06.688Z,63.71
2023-06-02T09:32:06.527Z,62.81
2023-06-02T09:33:06.525Z,62.90
2023-06-02T09:34:06.493Z,63.28
2023-06-02T09:35:06.465Z,63.41
2023-06-02T09:36:06.720Z,62.86
2023-06-02T09:37:06.440Z,64.48
2023-06-02T09:38:06.431Z,64.07
2023-06-02T09:39:06.441Z,63.54
2023-06-02T09:40:06.456Z,63.21
2023-06-02T09:41:06.407Z,61.66
2023-06-02T09:42:06.409Z,60.65
2023-06-02T09:43:06.411Z,61.73
2023-06-02T09:44:06.414Z,60.60
2023-06-02T09:45:06.388Z,62.64
2023-06-02T09:46:06.679Z,62.90
2023-06-02T09:47:06.479Z,62.27
2023-06-02T09:48:06.458Z,63.51
2023-06-02T09:49:06.467Z,63.51
2023-06-02T09:50:06.383Z,63.71
2023-06-02T09:51:06.327Z,64.93
2023-06-02T09:52:06.319Z,62.50
2023-06-02T09:53:06.344Z,62.77
2023-06-02T09:54:06.311Z,63.01
2023-06-02T09:55:06.297Z,61.25
2023-06-02T09:56:06.581Z,60.14
2023-06-02T09:57:06.307Z,59.78
2023-06-02T09:58:06.303Z,62.71
2023-06-02T09:59:06.291Z,61.60
2023-06-02T10:00:06.266Z,59.89
2023-06-02T10:01:06.554Z,63.52
2023-06-02T10:02:06.283Z,63.01
2023-06-02T10:03:06.333Z,63.01
2023-06-02T10:04:06.307Z,63.41
2023-06-02T10:05:06.219Z,62.81
2023-06-02T10:06:06.381Z,64.22
2023-06-02T10:07:06.231Z,65.43
2023-06-02T10:08:06.199Z,62.98
2023-06-02T10:09:06.216Z,63.85
2023-06-02T10:10:06.191Z,61.68
2023-06-02T10:11:06.342Z,61.88
2023-06-02T10:12:06.224Z,60.94
2023-06-02T10:13:06.178Z,60.31
2023-06-02T10:14:06.153Z,60.58
2023-06-02T10:15:06.152Z,62.12
2023-06-02T10:16:06.187Z,59.05
2023-06-02T10:17:06.128Z,61.47
2023-06-02T10:18:06.142Z,60.77
2023-06-02T10:19:06.115Z,62.68
2023-06-02T10:20:06.170Z,61.98
2023-06-02T10:21:06.408Z,62.88
2023-06-02T10:22:06.168Z,60.80
2023-06-02T10:23:06.136Z,61.83
2023-06-02T10:24:06.276Z,64.76
2023-06-02T10:25:06.097Z,63.25
2023-06-02T10:26:06.095Z,61.80
2023-06-02T10:27:06.072Z,62.92
2023-06-02T10:28:06.052Z,63.45
2023-06-02T10:29:06.035Z,64.00
2023-06-02T10:30:07.066Z,61.57
2023-06-02T10:31:06.488Z,60.97
2023-06-02T10:32:06.018Z,63.90
2023-06-02T10:33:06.069Z,62.68
2023-06-02T10:34:06.009Z,63.06
2023-06-02T10:35:06.027Z,62.52
2023-06-02T10:36:06.581Z,60.08
2023-06-02T10:37:05.982Z,59.97
2023-06-02T10:38:05.981Z,58.47
2023-06-02T10:39:05.975Z,58.84
2023-06-02T10:40:06.046Z,57.70
2023-06-02T10:41:06.150Z,55.87
2023-06-02T10:42:05.946Z,57.37
2023-06-02T10:43:05.942Z,60.52
2023-06-02T10:44:05.966Z,60.28
2023-06-02T10:45:05.943Z,60.00
2023-06-02T10:46:05.903Z,58.80
2023-06-02T10:47:06.052Z,57.68
2023-06-02T10:48:05.965Z,57.86
2023-06-02T10:49:05.908Z,59.67
2023-06-02T10:50:09.301Z,57.03
2023-06-02T10:51:07.886Z,60.08
2023-06-02T10:52:05.865Z,57.93
2023-06-02T10:53:05.869Z,57.30
2023-06-02T10:54:05.942Z,60.36
2023-06-02T10:55:05.844Z,55.74
2023-06-02T10:56:05.828Z,56.84
2023-06-02T10:57:05.822Z,58.75
2023-06-02T10:58:05.838Z,58.91
2023-06-02T10:59:05.832Z,60.88
2023-06-02T11:00:05.799Z,60.48
2023-06-02T11:01:06.094Z,58.84
2023-06-02T11:02:05.820Z,60.42
2023-06-02T11:03:05.961Z,62.26
2023-06-02T11:04:05.872Z,59.75
2023-06-02T11:05:05.762Z,58.34
2023-06-02T11:06:05.751Z,62.57
2023-06-02T11:07:05.744Z,59.14
2023-06-02T11:08:06.054Z,59.62
2023-06-02T11:09:05.734Z,59.89
2023-06-02T11:10:05.727Z,58.01
2023-06-02T11:11:05.712Z,57.78
2023-06-02T11:12:06.052Z,56.84
2023-06-02T11:13:06.049Z,56.71
2023-06-02T11:14:06.696Z,56.38
2023-06-02T11:15:05.814Z,58.50
2023-06-02T11:16:05.673Z,56.29
2023-06-02T11:17:06.684Z,56.49
2023-06-02T11:18:05.701Z,55.28
2023-06-02T11:19:05.660Z,58.29
2023-06-02T11:20:05.638Z,57.19
2023-06-02T11:21:05.721Z,56.19
2023-06-02T11:22:05.734Z,56.38
2023-06-02T11:23:05.632Z,54.22
2023-06-02T11:24:05.617Z,53.59
2023-06-02T11:25:05.605Z,52.59
2023-06-02T11:26:05.626Z,53.39
2023-06-02T11:27:05.612Z,53.80
2023-06-02T11:28:05.583Z,54.38
2023-06-02T11:29:05.572Z,53.77
2023-06-02T11:30:05.570Z,55.28
2023-06-02T11:31:06.132Z,55.00
2023-06-02T11:32:05.557Z,53.77
2023-06-02T11:33:05.590Z,54.17
2023-06-02T11:34:05.533Z,56.78
2023-06-02T11:35:05.536Z,55.75
2023-06-02T11:36:05.549Z,56.58
2023-06-02T11:37:05.517Z,53.57
2023-06-02T11:38:05.507Z,52.49
2023-06-02T11:39:05.491Z,53.27
2023-06-02T11:40:05.573Z,55.98
2023-06-02T11:41:05.742Z,55.32
2023-06-02T11:42:05.482Z,54.45
2023-06-02T11:43:05.514Z,52.14
2023-06-02T11:44:05.524Z,52.94
2023-06-02T11:45:05.495Z,55.51
2023-06-02T11:46:05.447Z,57.84
2023-06-02T11:47:05.438Z,57.79
2023-06-02T11:48:05.472Z,57.39
2023-06-02T11:49:05.441Z,58.95
2023-06-02T11:50:05.445Z,57.15
2023-06-02T11:51:05.405Z,58.65
2023-06-02T11:52:05.429Z,58.33
2023-06-02T11:53:05.411Z,57.32
2023-06-02T11:54:05.401Z,59.60
2023-06-02T11:55:05.513Z,57.59
2023-06-02T11:56:05.377Z,56.16
2023-06-02T11:57:05.351Z,55.86
2023-06-02T11:58:05.350Z,57.26
2023-06-02T11:59:05.362Z,58.04
2023-06-02T12:00:05.329Z,57.87
2023-06-02T12:01:05.328Z,58.47
2023-06-02T12:02:05.324Z,57.17
2023-06-02T12:03:05.423Z,58.27
2023-06-02T12:04:05.666Z,57.34
2023-06-02T12:05:05.418Z,55.63
2023-06-02T12:06:05.286Z,57.04
2023-06-02T12:07:05.276Z,56.10
2023-06-02T12:08:05.290Z,57.08
2023-06-02T12:09:05.279Z,57.18
2023-06-02T12:10:05.280Z,56.10
2023-06-02T12:11:05.466Z,56.30
2023-06-02T12:12:05.231Z,56.03
2023-06-02T12:13:05.252Z,55.30
2023-06-02T12:14:05.215Z,54.17
2023-06-02T12:15:05.210Z,55.75
2023-06-02T12:16:05.202Z,54.32
2023-06-02T12:17:05.244Z,55.95
2023-06-02T12:18:05.282Z,58.69
2023-06-02T12:19:05.178Z,58.22
2023-06-02T12:20:05.216Z,57.34
2023-06-02T12:21:05.478Z,60.93
2023-06-02T12:22:05.246Z,57.54
2023-06-02T12:23:05.171Z,57.34
2023-06-02T12:24:05.139Z,59.14
2023-06-02T12:25:05.129Z,61.05
2023-06-02T12:26:05.126Z,59.32
2023-06-02T12:27:05.158Z,57.51
2023-06-02T12:28:05.112Z,56.98
2023-06-02T12:29:05.109Z,57.48
2023-06-02T12:30:05.088Z,58.43
2023-06-02T12:31:06.358Z,59.33
2023-06-02T12:32:05.098Z,59.83
2023-06-02T12:33:05.112Z,58.23
2023-06-02T12:34:05.066Z,56.56
2023-06-02T12:35:05.062Z,57.66
2023-06-02T12:36:05.072Z,56.85
2023-06-02T12:37:05.118Z,57.03
2023-06-02T12:38:05.032Z,58.83
2023-06-02T12:39:05.026Z,57.03
2023-06-02T12:40:05.040Z,59.06
2023-06-02T12:41:05.270Z,57.59
2023-06-02T12:42:05.032Z,57.26
2023-06-02T12:43:05.028Z,57.33
2023-06-02T12:44:04.986Z,58.20
2023-06-02T12:45:04.986Z,56.40
2023-06-02T12:46:05.048Z,57.20
2023-06-02T12:47:05.012Z,56.07
2023-06-02T12:48:05.058Z,55.77
2023-06-02T12:49:04.943Z,54.94
2023-06-02T12:50:04.944Z,53.85
2023-06-02T12:51:06.197Z,54.44
2023-06-02T12:52:04.917Z,56.22
2023-06-02T12:53:04.913Z,55.94
2023-06-02T12:54:04.900Z,55.98